sensor_id;sensor_type;location;lat;lon;timestamp;P1;durP1;ratioP1;P2;durP2;ratioP2
7334;SDS011;3708;42.632;23.378;2022-11-15T00:01:44;24.63;;;15.33;;
7334;SDS011;3708;42.632;23.378;2022-11-15T00:04:11;26.00;;;15.10;;
7334;SDS011;3708;42.632;23.378;2022-11-15T00:06:38;24.07;;;14.43;;
7334;SDS011;3708;42.632;23.378;2022-11-15T00:09:06;22.37;;;13.67;;
7334;SDS011;3708;42.632;23.378;2022-11-15T00:11:34;27.13;;;15.37;;
7334;SDS011;3708;42.632;23.378;2022-11-15T00:14:01;24.57;;;14.93;;
7334;SDS011;3708;42.632;23.378;2022-11-15T00:16:29;28.50;;;15.73;;
7334;SDS011;3708;42.632;23.378;2022-11-15T00:18:56;28.97;;;18.43;;
7334;SDS011;3708;42.632;23.378;2022-11-15T00:21:23;43.27;;;25.10;;
7334;SDS011;3708;42.632;23.378;2022-11-15T00:23:50;46.67;;;25.37;;
7334;SDS011;3708;42.632;23.378;2022-11-15T00:26:17;51.17;;;28.43;;
7334;SDS011;3708;42.632;23.378;2022-11-15T00:28:45;58.03;;;30.53;;
7334;SDS011;3708;42.632;23.378;2022-11-15T00:31:13;54.67;;;31.70;;
7334;SDS011;3708;42.632;23.378;2022-11-15T00:33:42;55.47;;;32.53;;
7334;SDS011;3708;42.632;23.378;2022-11-15T00:36:09;58.67;;;33.23;;
7334;SDS011;3708;42.632;23.378;2022-11-15T00:38:39;50.60;;;31.73;;
7334;SDS011;3708;42.632;23.378;2022-11-15T00:41:07;52.27;;;31.90;;
7334;SDS011;3708;42.632;23.378;2022-11-15T00:43:36;50.37;;;29.87;;
7334;SDS011;3708;42.632;23.378;2022-11-15T00:46:10;50.60;;;27.67;;
7334;SDS011;3708;42.632;23.378;2022-11-15T00:48:37;48.67;;;28.37;;
7334;SDS011;3708;42.632;23.378;2022-11-15T00:51:04;47.73;;;26.53;;
7334;SDS011;3708;42.632;23.378;2022-11-15T00:53:31;47.87;;;28.23;;
7334;SDS011;3708;42.632;23.378;2022-11-15T00:55:58;49.70;;;29.70;;
7334;SDS011;3708;42.632;23.378;2022-11-15T00:58:25;56.63;;;29.27;;
7334;SDS011;3708;42.632;23.378;2022-11-15T01:00:52;40.00;;;23.77;;
7334;SDS011;3708;42.632;23.378;2022-11-15T01:03:21;45.53;;;27.53;;
7334;SDS011;3708;42.632;23.378;2022-11-15T01:05:48;57.10;;;30.50;;
7334;SDS011;3708;42.632;23.378;2022-11-15T01:08:15;45.53;;;25.33;;
7334;SDS011;3708;42.632;23.378;2022-11-15T01:10:44;42.83;;;25.57;;
7334;SDS011;3708;42.632;23.378;2022-11-15T01:13:11;34.47;;;21.13;;
7334;SDS011;3708;42.632;23.378;2022-11-15T01:15:39;38.90;;;21.67;;
7334;SDS011;3708;42.632;23.378;2022-11-15T01:18:06;59.53;;;30.97;;
7334;SDS011;3708;42.632;23.378;2022-11-15T01:20:38;55.83;;;30.60;;
7334;SDS011;3708;42.632;23.378;2022-11-15T01:23:05;67.37;;;35.13;;
7334;SDS011;3708;42.632;23.378;2022-11-15T01:25:32;60.03;;;33.63;;
7334;SDS011;3708;42.632;23.378;2022-11-15T01:27:59;56.20;;;33.07;;
7334;SDS011;3708;42.632;23.378;2022-11-15T01:30:26;77.73;;;40.63;;
7334;SDS011;3708;42.632;23.378;2022-11-15T01:32:53;63.93;;;38.17;;
7334;SDS011;3708;42.632;23.378;2022-11-15T01:35:22;70.83;;;35.53;;
7334;SDS011;3708;42.632;23.378;2022-11-15T01:37:50;54.60;;;29.93;;
7334;SDS011;3708;42.632;23.378;2022-11-15T01:40:17;49.77;;;30.67;;
7334;SDS011;3708;42.632;23.378;2022-11-15T01:42:44;47.90;;;26.20;;
7334;SDS011;3708;42.632;23.378;2022-11-15T01:45:12;45.50;;;24.77;;
7334;SDS011;3708;42.632;23.378;2022-11-15T01:47:41;41.87;;;23.83;;
7334;SDS011;3708;42.632;23.378;2022-11-15T01:50:13;48.20;;;28.80;;
7334;SDS011;3708;42.632;23.378;2022-11-15T01:52:43;49.00;;;29.73;;
7334;SDS011;3708;42.632;23.378;2022-11-15T01:55:13;60.53;;;33.93;;
7334;SDS011;3708;42.632;23.378;2022-11-15T01:57:42;44.10;;;27.70;;
7334;SDS011;3708;42.632;23.378;2022-11-15T02:00:13;50.20;;;28.30;;
7334;SDS011;3708;42.632;23.378;2022-11-15T02:02:41;40.40;;;24.97;;
7334;SDS011;3708;42.632;23.378;2022-11-15T02:05:08;38.07;;;20.13;;
7334;SDS011;3708;42.632;23.378;2022-11-15T02:07:35;28.23;;;17.57;;
7334;SDS011;3708;42.632;23.378;2022-11-15T02:10:04;31.03;;;18.93;;
7334;SDS011;3708;42.632;23.378;2022-11-15T02:12:36;20.83;;;13.70;;
7334;SDS011;3708;42.632;23.378;2022-11-15T02:15:04;26.43;;;16.30;;
7334;SDS011;3708;42.632;23.378;2022-11-15T02:17:46;35.07;;;19.30;;
7334;SDS011;3708;42.632;23.378;2022-11-15T02:20:42;32.67;;;19.67;;
7334;SDS011;3708;42.632;23.378;2022-11-15T02:29:28;32.50;;;19.60;;
7334;SDS011;3708;42.632;23.378;2022-11-15T02:32:09;33.73;;;18.57;;
7334;SDS011;3708;42.632;23.378;2022-11-15T02:34:46;38.93;;;19.63;;
7334;SDS011;3708;42.632;23.378;2022-11-15T02:37:22;34.47;;;19.43;;
7334;SDS011;3708;42.632;23.378;2022-11-15T02:39:58;27.87;;;17.00;;
7334;SDS011;3708;42.632;23.378;2022-11-15T02:42:33;31.33;;;18.70;;
7334;SDS011;3708;42.632;23.378;2022-11-15T02:45:21;34.63;;;18.17;;
7334;SDS011;3708;42.632;23.378;2022-11-15T02:47:54;30.07;;;18.23;;
7334;SDS011;3708;42.632;23.378;2022-11-15T02:50:25;26.17;;;16.30;;
7334;SDS011;3708;42.632;23.378;2022-11-15T02:52:55;27.90;;;15.30;;
7334;SDS011;3708;42.632;23.378;2022-11-15T02:55:26;25.07;;;15.83;;
7334;SDS011;3708;42.632;23.378;2022-11-15T02:57:58;22.60;;;14.13;;
7334;SDS011;3708;42.632;23.378;2022-11-15T03:00:34;30.87;;;15.70;;
7334;SDS011;3708;42.632;23.378;2022-11-15T03:03:15;24.63;;;15.43;;
7334;SDS011;3708;42.632;23.378;2022-11-15T03:05:56;33.97;;;15.53;;
7334;SDS011;3708;42.632;23.378;2022-11-15T03:08:37;25.93;;;14.47;;
7334;SDS011;3708;42.632;23.378;2022-11-15T03:11:14;22.90;;;13.70;;
7334;SDS011;3708;42.632;23.378;2022-11-15T03:13:44;21.13;;;13.53;;
7334;SDS011;3708;42.632;23.378;2022-11-15T03:16:19;19.77;;;12.27;;
7334;SDS011;3708;42.632;23.378;2022-11-15T03:18:53;19.47;;;12.47;;
7334;SDS011;3708;42.632;23.378;2022-11-15T03:21:25;24.40;;;14.13;;
7334;SDS011;3708;42.632;23.378;2022-11-15T03:23:55;22.47;;;12.73;;
7334;SDS011;3708;42.632;23.378;2022-11-15T03:26:24;20.27;;;13.27;;
7334;SDS011;3708;42.632;23.378;2022-11-15T03:28:53;17.47;;;12.70;;
7334;SDS011;3708;42.632;23.378;2022-11-15T03:31:22;20.20;;;13.27;;
7334;SDS011;3708;42.632;23.378;2022-11-15T03:34:18;19.87;;;12.83;;
7334;SDS011;3708;42.632;23.378;2022-11-15T03:36:50;19.87;;;12.77;;
7334;SDS011;3708;42.632;23.378;2022-11-15T03:39:19;23.23;;;12.67;;
7334;SDS011;3708;42.632;23.378;2022-11-15T03:44:47;22.53;;;13.57;;
7334;SDS011;3708;42.632;23.378;2022-11-15T03:47:32;18.00;;;11.83;;
7334;SDS011;3708;42.632;23.378;2022-11-15T03:50:04;19.20;;;11.40;;
7334;SDS011;3708;42.632;23.378;2022-11-15T03:52:36;20.23;;;11.77;;
7334;SDS011;3708;42.632;23.378;2022-11-15T03:55:05;16.67;;;11.50;;
7334;SDS011;3708;42.632;23.378;2022-11-15T03:57:37;17.83;;;10.70;;
7334;SDS011;3708;42.632;23.378;2022-11-15T04:00:38;17.57;;;11.00;;
7334;SDS011;3708;42.632;23.378;2022-11-15T04:03:15;26.80;;;15.87;;
7334;SDS011;3708;42.632;23.378;2022-11-15T04:05:43;24.87;;;16.93;;
7334;SDS011;3708;42.632;23.378;2022-11-15T04:08:10;38.47;;;25.67;;
7334;SDS011;3708;42.632;23.378;2022-11-15T04:10:37;47.63;;;30.37;;
7334;SDS011;3708;42.632;23.378;2022-11-15T04:13:04;45.87;;;28.53;;
7334;SDS011;3708;42.632;23.378;2022-11-15T04:15:31;97.63;;;32.30;;
7334;SDS011;3708;42.632;23.378;2022-11-15T04:17:58;109.23;;;33.33;;
7334;SDS011;3708;42.632;23.378;2022-11-15T04:20:26;100.50;;;34.53;;
7334;SDS011;3708;42.632;23.378;2022-11-15T04:23:14;85.20;;;34.07;;
7334;SDS011;3708;42.632;23.378;2022-11-15T04:26:01;91.87;;;32.53;;
7334;SDS011;3708;42.632;23.378;2022-11-15T04:28:35;80.83;;;31.23;;
7334;SDS011;3708;42.632;23.378;2022-11-15T04:31:23;84.97;;;31.70;;
7334;SDS011;3708;42.632;23.378;2022-11-15T04:33:50;86.47;;;30.63;;
7334;SDS011;3708;42.632;23.378;2022-11-15T04:36:17;115.67;;;31.33;;
7334;SDS011;3708;42.632;23.378;2022-11-15T04:39:03;101.57;;;30.67;;
7334;SDS011;3708;42.632;23.378;2022-11-15T04:41:30;124.57;;;28.13;;
7334;SDS011;3708;42.632;23.378;2022-11-15T04:43:57;94.67;;;28.77;;
7334;SDS011;3708;42.632;23.378;2022-11-15T04:46:24;117.30;;;28.87;;
7334;SDS011;3708;42.632;23.378;2022-11-15T04:48:52;125.03;;;29.13;;
7334;SDS011;3708;42.632;23.378;2022-11-15T04:51:19;112.13;;;28.43;;
7334;SDS011;3708;42.632;23.378;2022-11-15T04:53:48;198.83;;;29.60;;
7334;SDS011;3708;42.632;23.378;2022-11-15T04:56:19;125.67;;;28.27;;
7334;SDS011;3708;42.632;23.378;2022-11-15T04:58:48;86.70;;;27.53;;
7334;SDS011;3708;42.632;23.378;2022-11-15T05:01:15;103.00;;;26.70;;
7334;SDS011;3708;42.632;23.378;2022-11-15T05:03:43;79.53;;;26.63;;
7334;SDS011;3708;42.632;23.378;2022-11-15T05:06:28;125.83;;;29.57;;
7334;SDS011;3708;42.632;23.378;2022-11-15T05:08:55;56.33;;;25.37;;
7334;SDS011;3708;42.632;23.378;2022-11-15T05:11:24;101.07;;;27.40;;
7334;SDS011;3708;42.632;23.378;2022-11-15T05:13:52;56.87;;;25.30;;
7334;SDS011;3708;42.632;23.378;2022-11-15T05:16:19;65.60;;;26.70;;
7334;SDS011;3708;42.632;23.378;2022-11-15T05:18:46;60.10;;;27.10;;
7334;SDS011;3708;42.632;23.378;2022-11-15T05:21:16;69.83;;;27.17;;
7334;SDS011;3708;42.632;23.378;2022-11-15T05:23:44;71.23;;;24.40;;
7334;SDS011;3708;42.632;23.378;2022-11-15T05:26:11;62.63;;;25.47;;
7334;SDS011;3708;42.632;23.378;2022-11-15T05:28:39;53.97;;;24.17;;
7334;SDS011;3708;42.632;23.378;2022-11-15T05:31:07;53.00;;;23.47;;
7334;SDS011;3708;42.632;23.378;2022-11-15T05:33:36;70.67;;;22.70;;
7334;SDS011;3708;42.632;23.378;2022-11-15T05:36:06;41.33;;;20.47;;
7334;SDS011;3708;42.632;23.378;2022-11-15T05:38:37;36.33;;;21.87;;
7334;SDS011;3708;42.632;23.378;2022-11-15T05:41:04;40.63;;;22.17;;
7334;SDS011;3708;42.632;23.378;2022-11-15T05:43:32;39.07;;;20.70;;
7334;SDS011;3708;42.632;23.378;2022-11-15T05:46:03;47.00;;;21.63;;
7334;SDS011;3708;42.632;23.378;2022-11-15T05:48:31;35.93;;;21.10;;
7334;SDS011;3708;42.632;23.378;2022-11-15T05:50:59;40.00;;;19.07;;
7334;SDS011;3708;42.632;23.378;2022-11-15T05:53:26;33.17;;;18.47;;
7334;SDS011;3708;42.632;23.378;2022-11-15T05:55:53;36.37;;;20.70;;
7334;SDS011;3708;42.632;23.378;2022-11-15T05:58:21;38.03;;;19.27;;
7334;SDS011;3708;42.632;23.378;2022-11-15T06:00:48;94.00;;;28.50;;
7334;SDS011;3708;42.632;23.378;2022-11-15T06:03:16;99.43;;;27.90;;
7334;SDS011;3708;42.632;23.378;2022-11-15T06:05:43;80.50;;;30.27;;
7334;SDS011;3708;42.632;23.378;2022-11-15T06:08:10;88.03;;;29.53;;
7334;SDS011;3708;42.632;23.378;2022-11-15T06:10:37;76.73;;;28.97;;
7334;SDS011;3708;42.632;23.378;2022-11-15T06:13:04;58.23;;;26.40;;
7334;SDS011;3708;42.632;23.378;2022-11-15T06:15:31;60.23;;;25.43;;
7334;SDS011;3708;42.632;23.378;2022-11-15T06:17:59;51.93;;;25.83;;
7334;SDS011;3708;42.632;23.378;2022-11-15T06:20:29;50.40;;;23.67;;
7334;SDS011;3708;42.632;23.378;2022-11-15T06:22:57;52.57;;;24.03;;
7334;SDS011;3708;42.632;23.378;2022-11-15T06:25:24;60.93;;;27.93;;
7334;SDS011;3708;42.632;23.378;2022-11-15T06:27:51;60.10;;;25.63;;
7334;SDS011;3708;42.632;23.378;2022-11-15T06:30:19;59.23;;;25.77;;
7334;SDS011;3708;42.632;23.378;2022-11-15T06:32:46;60.57;;;26.43;;
7334;SDS011;3708;42.632;23.378;2022-11-15T06:35:13;68.03;;;27.87;;
7334;SDS011;3708;42.632;23.378;2022-11-15T06:37:42;70.10;;;28.83;;
7334;SDS011;3708;42.632;23.378;2022-11-15T06:40:10;120.70;;;33.43;;
7334;SDS011;3708;42.632;23.378;2022-11-15T06:42:37;84.80;;;31.90;;
7334;SDS011;3708;42.632;23.378;2022-11-15T06:45:04;119.73;;;32.00;;
7334;SDS011;3708;42.632;23.378;2022-11-15T06:47:32;89.13;;;30.10;;
7334;SDS011;3708;42.632;23.378;2022-11-15T06:49:59;112.30;;;30.40;;
7334;SDS011;3708;42.632;23.378;2022-11-15T06:52:26;94.13;;;29.90;;
7334;SDS011;3708;42.632;23.378;2022-11-15T06:54:59;59.17;;;27.50;;
7334;SDS011;3708;42.632;23.378;2022-11-15T06:57:26;62.67;;;26.60;;
7334;SDS011;3708;42.632;23.378;2022-11-15T06:59:53;55.13;;;28.00;;
7334;SDS011;3708;42.632;23.378;2022-11-15T07:02:20;49.67;;;25.53;;
7334;SDS011;3708;42.632;23.378;2022-11-15T07:04:47;49.57;;;25.17;;
7334;SDS011;3708;42.632;23.378;2022-11-15T07:07:14;57.03;;;27.17;;
7334;SDS011;3708;42.632;23.378;2022-11-15T07:09:40;58.03;;;26.33;;
7334;SDS011;3708;42.632;23.378;2022-11-15T07:12:10;50.33;;;24.77;;
7334;SDS011;3708;42.632;23.378;2022-11-15T07:14:37;45.13;;;24.07;;
7334;SDS011;3708;42.632;23.378;2022-11-15T07:17:04;43.17;;;24.00;;
7334;SDS011;3708;42.632;23.378;2022-11-15T07:19:32;45.57;;;24.10;;
7334;SDS011;3708;42.632;23.378;2022-11-15T07:21:58;32.20;;;20.23;;
7334;SDS011;3708;42.632;23.378;2022-11-15T07:24:25;36.63;;;20.03;;
7334;SDS011;3708;42.632;23.378;2022-11-15T07:26:52;36.83;;;19.50;;
7334;SDS011;3708;42.632;23.378;2022-11-15T07:29:21;35.97;;;20.60;;
7334;SDS011;3708;42.632;23.378;2022-11-15T07:31:48;37.60;;;20.90;;
7334;SDS011;3708;42.632;23.378;2022-11-15T07:34:15;37.07;;;19.97;;
7334;SDS011;3708;42.632;23.378;2022-11-15T07:36:42;31.97;;;18.70;;
7334;SDS011;3708;42.632;23.378;2022-11-15T07:39:09;29.13;;;16.73;;
7334;SDS011;3708;42.632;23.378;2022-11-15T07:41:37;28.83;;;16.77;;
7334;SDS011;3708;42.632;23.378;2022-11-15T07:44:04;28.23;;;16.87;;
7334;SDS011;3708;42.632;23.378;2022-11-15T07:46:33;32.07;;;18.43;;
7334;SDS011;3708;42.632;23.378;2022-11-15T07:49:00;31.00;;;18.20;;
7334;SDS011;3708;42.632;23.378;2022-11-15T07:51:27;36.53;;;20.30;;
7334;SDS011;3708;42.632;23.378;2022-11-15T07:53:53;38.80;;;20.73;;
7334;SDS011;3708;42.632;23.378;2022-11-15T07:56:20;44.70;;;21.50;;
7334;SDS011;3708;42.632;23.378;2022-11-15T07:58:47;39.33;;;19.43;;
7334;SDS011;3708;42.632;23.378;2022-11-15T08:01:15;40.93;;;21.97;;
7334;SDS011;3708;42.632;23.378;2022-11-15T08:03:44;35.87;;;20.33;;
7334;SDS011;3708;42.632;23.378;2022-11-15T08:06:11;42.73;;;21.23;;
7334;SDS011;3708;42.632;23.378;2022-11-15T08:08:38;47.07;;;26.03;;
7334;SDS011;3708;42.632;23.378;2022-11-15T08:11:05;71.43;;;34.67;;
7334;SDS011;3708;42.632;23.378;2022-11-15T08:13:32;73.87;;;35.50;;
7334;SDS011;3708;42.632;23.378;2022-11-15T08:16:00;74.73;;;37.53;;
7334;SDS011;3708;42.632;23.378;2022-11-15T08:18:30;75.53;;;36.90;;
7334;SDS011;3708;42.632;23.378;2022-11-15T08:20:59;73.80;;;35.97;;
7334;SDS011;3708;42.632;23.378;2022-11-15T08:23:27;73.50;;;35.10;;
7334;SDS011;3708;42.632;23.378;2022-11-15T08:25:58;64.87;;;33.53;;
7334;SDS011;3708;42.632;23.378;2022-11-15T08:28:26;73.80;;;38.30;;
7334;SDS011;3708;42.632;23.378;2022-11-15T08:30:53;77.13;;;35.93;;
7334;SDS011;3708;42.632;23.378;2022-11-15T08:33:19;65.27;;;32.97;;
7334;SDS011;3708;42.632;23.378;2022-11-15T08:35:47;67.27;;;35.63;;
7334;SDS011;3708;42.632;23.378;2022-11-15T08:38:16;73.00;;;36.07;;
7334;SDS011;3708;42.632;23.378;2022-11-15T08:40:42;79.97;;;35.70;;
7334;SDS011;3708;42.632;23.378;2022-11-15T08:43:09;83.60;;;37.77;;
7334;SDS011;3708;42.632;23.378;2022-11-15T08:45:36;87.63;;;39.33;;
7334;SDS011;3708;42.632;23.378;2022-11-15T08:48:03;87.60;;;40.77;;
7334;SDS011;3708;42.632;23.378;2022-11-15T08:50:31;76.60;;;37.40;;
7334;SDS011;3708;42.632;23.378;2022-11-15T08:52:59;80.83;;;37.17;;
7334;SDS011;3708;42.632;23.378;2022-11-15T08:55:32;78.20;;;38.93;;
7334;SDS011;3708;42.632;23.378;2022-11-15T08:58:02;81.57;;;38.87;;
7334;SDS011;3708;42.632;23.378;2022-11-15T09:00:29;96.50;;;41.47;;
7334;SDS011;3708;42.632;23.378;2022-11-15T09:02:56;82.10;;;40.30;;
7334;SDS011;3708;42.632;23.378;2022-11-15T09:05:24;91.33;;;43.57;;
7334;SDS011;3708;42.632;23.378;2022-11-15T09:07:52;77.07;;;39.07;;
7334;SDS011;3708;42.632;23.378;2022-11-15T09:10:19;81.87;;;38.43;;
7334;SDS011;3708;42.632;23.378;2022-11-15T09:12:47;92.03;;;44.07;;
7334;SDS011;3708;42.632;23.378;2022-11-15T09:15:15;76.43;;;39.13;;
7334;SDS011;3708;42.632;23.378;2022-11-15T09:17:42;81.80;;;40.10;;
7334;SDS011;3708;42.632;23.378;2022-11-15T09:20:10;84.13;;;41.43;;
7334;SDS011;3708;42.632;23.378;2022-11-15T09:22:37;79.57;;;39.37;;
7334;SDS011;3708;42.632;23.378;2022-11-15T09:25:05;82.10;;;40.00;;
7334;SDS011;3708;42.632;23.378;2022-11-15T09:27:33;78.13;;;38.47;;
7334;SDS011;3708;42.632;23.378;2022-11-15T09:30:01;84.87;;;40.53;;
7334;SDS011;3708;42.632;23.378;2022-11-15T09:32:28;87.07;;;40.60;;
7334;SDS011;3708;42.632;23.378;2022-11-15T09:34:56;81.27;;;39.70;;
7334;SDS011;3708;42.632;23.378;2022-11-15T09:37:23;75.47;;;38.57;;
7334;SDS011;3708;42.632;23.378;2022-11-15T09:39:50;78.70;;;39.50;;
7334;SDS011;3708;42.632;23.378;2022-11-15T09:42:25;75.17;;;38.27;;
7334;SDS011;3708;42.632;23.378;2022-11-15T09:45:12;73.30;;;37.17;;
7334;SDS011;3708;42.632;23.378;2022-11-15T09:50:49;71.77;;;37.43;;
7334;SDS011;3708;42.632;23.378;2022-11-15T09:53:21;76.40;;;39.50;;
7334;SDS011;3708;42.632;23.378;2022-11-15T09:55:54;73.07;;;38.73;;
7334;SDS011;3708;42.632;23.378;2022-11-15T09:58:26;68.10;;;37.33;;
7334;SDS011;3708;42.632;23.378;2022-11-15T10:01:04;72.60;;;38.53;;
7334;SDS011;3708;42.632;23.378;2022-11-15T10:03:37;83.27;;;39.87;;
7334;SDS011;3708;42.632;23.378;2022-11-15T10:06:08;81.87;;;41.77;;
7334;SDS011;3708;42.632;23.378;2022-11-15T10:08:46;69.80;;;38.57;;
7334;SDS011;3708;42.632;23.378;2022-11-15T10:11:19;74.30;;;39.77;;
7334;SDS011;3708;42.632;23.378;2022-11-15T10:13:49;72.80;;;40.03;;
7334;SDS011;3708;42.632;23.378;2022-11-15T10:16:34;74.77;;;37.73;;
7334;SDS011;3708;42.632;23.378;2022-11-15T10:19:19;71.23;;;38.60;;
7334;SDS011;3708;42.632;23.378;2022-11-15T10:21:54;70.67;;;38.03;;
7334;SDS011;3708;42.632;23.378;2022-11-15T10:24:31;68.50;;;36.20;;
7334;SDS011;3708;42.632;23.378;2022-11-15T10:27:03;72.87;;;38.00;;
7334;SDS011;3708;42.632;23.378;2022-11-15T10:29:36;69.50;;;36.70;;
7334;SDS011;3708;42.632;23.378;2022-11-15T10:32:10;65.73;;;37.33;;
7334;SDS011;3708;42.632;23.378;2022-11-15T10:34:38;68.90;;;38.27;;
7334;SDS011;3708;42.632;23.378;2022-11-15T10:37:05;63.97;;;36.00;;
7334;SDS011;3708;42.632;23.378;2022-11-15T10:39:32;57.97;;;35.17;;
7334;SDS011;3708;42.632;23.378;2022-11-15T10:42:05;62.67;;;34.33;;
7334;SDS011;3708;42.632;23.378;2022-11-15T10:44:42;56.13;;;32.43;;
7334;SDS011;3708;42.632;23.378;2022-11-15T10:50:04;57.97;;;33.33;;
7334;SDS011;3708;42.632;23.378;2022-11-15T10:52:33;51.83;;;30.80;;
7334;SDS011;3708;42.632;23.378;2022-11-15T10:55:04;53.63;;;30.70;;
7334;SDS011;3708;42.632;23.378;2022-11-15T10:57:48;52.40;;;30.63;;
7334;SDS011;3708;42.632;23.378;2022-11-15T11:00:26;53.03;;;31.80;;
7334;SDS011;3708;42.632;23.378;2022-11-15T11:02:58;57.33;;;31.33;;
7334;SDS011;3708;42.632;23.378;2022-11-15T11:05:28;50.87;;;29.27;;
7334;SDS011;3708;42.632;23.378;2022-11-15T11:07:59;57.17;;;31.83;;
7334;SDS011;3708;42.632;23.378;2022-11-15T11:10:27;53.80;;;30.77;;
7334;SDS011;3708;42.632;23.378;2022-11-15T11:12:54;53.37;;;30.20;;
7334;SDS011;3708;42.632;23.378;2022-11-15T11:15:22;52.33;;;29.77;;
7334;SDS011;3708;42.632;23.378;2022-11-15T11:18:00;51.27;;;29.77;;
7334;SDS011;3708;42.632;23.378;2022-11-15T11:20:36;53.17;;;30.57;;
7334;SDS011;3708;42.632;23.378;2022-11-15T11:23:16;51.10;;;29.97;;
7334;SDS011;3708;42.632;23.378;2022-11-15T11:25:56;55.63;;;30.63;;
7334;SDS011;3708;42.632;23.378;2022-11-15T11:28:35;54.30;;;31.03;;
7334;SDS011;3708;42.632;23.378;2022-11-15T11:31:20;51.23;;;30.87;;
7334;SDS011;3708;42.632;23.378;2022-11-15T11:34:00;50.27;;;30.23;;
7334;SDS011;3708;42.632;23.378;2022-11-15T11:36:39;52.93;;;31.80;;
7334;SDS011;3708;42.632;23.378;2022-11-15T11:39:22;51.53;;;30.57;;
7334;SDS011;3708;42.632;23.378;2022-11-15T11:42:00;47.23;;;28.73;;
7334;SDS011;3708;42.632;23.378;2022-11-15T11:44:35;43.80;;;28.33;;
7334;SDS011;3708;42.632;23.378;2022-11-15T11:47:10;55.47;;;30.90;;
7334;SDS011;3708;42.632;23.378;2022-11-15T11:49:41;57.00;;;31.80;;
7334;SDS011;3708;42.632;23.378;2022-11-15T11:52:14;51.97;;;31.80;;
7334;SDS011;3708;42.632;23.378;2022-11-15T11:54:55;50.53;;;30.27;;
7334;SDS011;3708;42.632;23.378;2022-11-15T11:57:33;52.13;;;31.87;;
7334;SDS011;3708;42.632;23.378;2022-11-15T12:00:12;52.87;;;30.33;;
7334;SDS011;3708;42.632;23.378;2022-11-15T12:02:44;50.80;;;27.23;;
7334;SDS011;3708;42.632;23.378;2022-11-15T12:05:20;54.30;;;31.30;;
7334;SDS011;3708;42.632;23.378;2022-11-15T12:07:53;47.67;;;28.30;;
7334;SDS011;3708;42.632;23.378;2022-11-15T12:10:28;54.50;;;29.93;;
7334;SDS011;3708;42.632;23.378;2022-11-15T12:13:00;48.93;;;29.50;;
7334;SDS011;3708;42.632;23.378;2022-11-15T12:15:31;51.03;;;28.70;;
7334;SDS011;3708;42.632;23.378;2022-11-15T12:18:03;48.17;;;29.50;;
7334;SDS011;3708;42.632;23.378;2022-11-15T12:20:34;45.30;;;28.10;;
7334;SDS011;3708;42.632;23.378;2022-11-15T12:23:07;67.17;;;36.63;;
7334;SDS011;3708;42.632;23.378;2022-11-15T12:25:41;46.77;;;28.07;;
7334;SDS011;3708;42.632;23.378;2022-11-15T12:28:13;51.87;;;30.40;;
7334;SDS011;3708;42.632;23.378;2022-11-15T12:30:45;51.40;;;30.10;;
7334;SDS011;3708;42.632;23.378;2022-11-15T12:33:28;48.40;;;28.77;;
7334;SDS011;3708;42.632;23.378;2022-11-15T12:35:59;77.77;;;40.60;;
7334;SDS011;3708;42.632;23.378;2022-11-15T12:41:23;49.80;;;31.47;;
7334;SDS011;3708;42.632;23.378;2022-11-15T12:43:51;59.83;;;34.23;;
7334;SDS011;3708;42.632;23.378;2022-11-15T12:46:23;59.07;;;31.47;;
7334;SDS011;3708;42.632;23.378;2022-11-15T12:49:41;59.80;;;33.23;;
7334;SDS011;3708;42.632;23.378;2022-11-15T12:52:12;87.03;;;41.27;;
7334;SDS011;3708;42.632;23.378;2022-11-15T12:54:50;54.20;;;32.20;;
7334;SDS011;3708;42.632;23.378;2022-11-15T12:57:36;57.00;;;34.33;;
7334;SDS011;3708;42.632;23.378;2022-11-15T13:05:57;45.53;;;27.30;;
7334;SDS011;3708;42.632;23.378;2022-11-15T13:08:39;97.07;;;47.60;;
7334;SDS011;3708;42.632;23.378;2022-11-15T13:17:16;64.07;;;35.60;;
7334;SDS011;3708;42.632;23.378;2022-11-15T13:20:00;77.50;;;40.33;;
7334;SDS011;3708;42.632;23.378;2022-11-15T13:22:46;57.83;;;33.60;;
7334;SDS011;3708;42.632;23.378;2022-11-15T13:25:35;71.90;;;35.73;;
7334;SDS011;3708;42.632;23.378;2022-11-15T13:28:21;78.93;;;39.93;;
7334;SDS011;3708;42.632;23.378;2022-11-15T13:30:54;53.07;;;30.87;;
7334;SDS011;3708;42.632;23.378;2022-11-15T13:33:24;55.00;;;30.27;;
7334;SDS011;3708;42.632;23.378;2022-11-15T13:35:57;59.10;;;31.87;;
7334;SDS011;3708;42.632;23.378;2022-11-15T13:38:32;91.40;;;45.43;;
7334;SDS011;3708;42.632;23.378;2022-11-15T13:41:18;81.07;;;41.20;;
7334;SDS011;3708;42.632;23.378;2022-11-15T13:43:48;82.17;;;43.10;;
7334;SDS011;3708;42.632;23.378;2022-11-15T13:46:21;87.90;;;43.77;;
7334;SDS011;3708;42.632;23.378;2022-11-15T13:48:52;102.13;;;50.57;;
7334;SDS011;3708;42.632;23.378;2022-11-15T13:51:23;123.50;;;50.80;;
7334;SDS011;3708;42.632;23.378;2022-11-15T13:53:55;58.10;;;29.77;;
7334;SDS011;3708;42.632;23.378;2022-11-15T13:56:26;114.87;;;49.03;;
7334;SDS011;3708;42.632;23.378;2022-11-15T13:58:55;100.10;;;49.80;;
7334;SDS011;3708;42.632;23.378;2022-11-15T14:01:22;79.33;;;43.33;;
7334;SDS011;3708;42.632;23.378;2022-11-15T14:03:53;89.43;;;44.50;;
7334;SDS011;3708;42.632;23.378;2022-11-15T14:06:23;95.33;;;47.27;;
7334;SDS011;3708;42.632;23.378;2022-11-15T14:12:02;91.37;;;43.83;;
7334;SDS011;3708;42.632;23.378;2022-11-15T14:14:48;87.53;;;42.83;;
7334;SDS011;3708;42.632;23.378;2022-11-15T14:17:18;115.97;;;51.67;;
7334;SDS011;3708;42.632;23.378;2022-11-15T14:19:48;107.50;;;49.83;;
7334;SDS011;3708;42.632;23.378;2022-11-15T14:22:20;86.90;;;44.07;;
7334;SDS011;3708;42.632;23.378;2022-11-15T14:25:04;98.53;;;50.90;;
7334;SDS011;3708;42.632;23.378;2022-11-15T14:27:42;62.13;;;35.00;;
7334;SDS011;3708;42.632;23.378;2022-11-15T14:30:14;59.90;;;31.33;;
7334;SDS011;3708;42.632;23.378;2022-11-15T14:32:47;68.27;;;31.90;;
7334;SDS011;3708;42.632;23.378;2022-11-15T14:35:18;56.93;;;31.50;;
7334;SDS011;3708;42.632;23.378;2022-11-15T14:37:46;56.67;;;31.03;;
7334;SDS011;3708;42.632;23.378;2022-11-15T14:40:15;68.67;;;31.37;;
7334;SDS011;3708;42.632;23.378;2022-11-15T14:42:45;59.40;;;29.87;;
7334;SDS011;3708;42.632;23.378;2022-11-15T14:45:15;51.57;;;29.37;;
7334;SDS011;3708;42.632;23.378;2022-11-15T14:47:45;62.17;;;32.40;;
7334;SDS011;3708;42.632;23.378;2022-11-15T14:50:12;58.97;;;32.20;;
7334;SDS011;3708;42.632;23.378;2022-11-15T14:52:41;58.73;;;31.63;;
7334;SDS011;3708;42.632;23.378;2022-11-15T14:55:14;66.87;;;32.37;;
7334;SDS011;3708;42.632;23.378;2022-11-15T14:57:50;67.73;;;33.60;;
7334;SDS011;3708;42.632;23.378;2022-11-15T15:00:18;64.83;;;33.10;;
7334;SDS011;3708;42.632;23.378;2022-11-15T15:02:45;68.40;;;33.93;;
7334;SDS011;3708;42.632;23.378;2022-11-15T15:05:14;56.23;;;32.17;;
7334;SDS011;3708;42.632;23.378;2022-11-15T15:07:42;67.27;;;32.80;;
7334;SDS011;3708;42.632;23.378;2022-11-15T15:10:09;61.90;;;33.43;;
7334;SDS011;3708;42.632;23.378;2022-11-15T15:12:37;58.57;;;34.47;;
7334;SDS011;3708;42.632;23.378;2022-11-15T15:15:08;61.00;;;36.17;;
7334;SDS011;3708;42.632;23.378;2022-11-15T15:17:39;70.87;;;34.33;;
7334;SDS011;3708;42.632;23.378;2022-11-15T15:20:07;67.23;;;33.83;;
7334;SDS011;3708;42.632;23.378;2022-11-15T15:22:34;65.43;;;36.37;;
7334;SDS011;3708;42.632;23.378;2022-11-15T15:32:37;78.57;;;35.77;;
7334;SDS011;3708;42.632;23.378;2022-11-15T15:35:16;66.87;;;36.23;;
7334;SDS011;3708;42.632;23.378;2022-11-15T15:37:45;88.70;;;42.03;;